CheckWX is a tool to help pilots better visualize weather data.  It is not intended as a substitute for an official pre-flight weather briefing.

23:01:38 UTC

KCEY METAR
Kyle-Oakley Field Airport
Murray, Kentucky, USA
Current

27 mins ago

KCEY 262235Z AUTO 15003KT 10SM CLR 22/20 A2996 RMK AO1
Observed
May-26 @ 22:35 UTC
Wind
  • 150° at 3 KTS
Visibility
Flight Rules
VFR
Cloud Levels
  • Clear skies
Temperature
22°C / 72°F
Dewpoint
20°C / 68°F
Humidity
88%
Altimeter
29.96" Hg
Pressure
1014.52 hPa
Previous

47 mins ago

KCEY 262215Z AUTO 13003KT 10SM BKN065 22/20 A2996 RMK AO1
Observed
May-26 @ 22:15 UTC
Wind
  • 130° at 3 KTS
Visibility
Flight Rules
VFR
Cloud Levels
  • Broken at 6,500' AGL
Temperature
22°C / 72°F
Dewpoint
20°C / 68°F
Humidity
88%
Altimeter
29.96" Hg
Pressure
1014.52 hPa
Previous

1 hour ago

KCEY 262155Z AUTO 14004KT 10SM SCT065 20/20 A2996 RMK AO1 P0068
Observed
May-26 @ 21:55 UTC
Wind
  • 140° at 4 KTS
Visibility
Flight Rules
VFR
Cloud Levels
  • Scattered at 6,500' AGL
Temperature
20°C / 68°F
Dewpoint
20°C / 68°F
Humidity
100%
Altimeter
29.96" Hg
Pressure
1014.52 hPa
Current Rain
0.68"